sensor_id;sensor_type;location;lat;lon;timestamp;temperature;humidity
19654;DHT22;9975;48.046;7.804;2023-06-14T01:56:30;12.90;35.80
19654;DHT22;9975;48.046;7.804;2023-06-14T01:58:55;12.90;36.70
19654;DHT22;9975;48.046;7.804;2023-06-14T02:01:22;12.80;36.30
19654;DHT22;9975;48.046;7.804;2023-06-14T02:03:47;12.80;36.30
19654;DHT22;9975;48.046;7.804;2023-06-14T02:06:14;12.70;36.80
19654;DHT22;9975;48.046;7.804;2023-06-14T02:08:41;12.80;37.10
19654;DHT22;9975;48.046;7.804;2023-06-14T02:11:08;12.60;37.30
19654;DHT22;9975;48.046;7.804;2023-06-14T02:13:34;12.70;37.40
19654;DHT22;9975;48.046;7.804;2023-06-14T02:16:00;12.80;37.80
19654;DHT22;9975;48.046;7.804;2023-06-14T02:18:25;12.80;38.40
19654;DHT22;9975;48.046;7.804;2023-06-14T02:20:51;12.40;39.10
19654;DHT22;9975;48.046;7.804;2023-06-14T02:23:17;12.50;39.20
19654;DHT22;9975;48.046;7.804;2023-06-14T02:25:42;12.50;39.10
19654;DHT22;9975;48.046;7.804;2023-06-14T02:28:10;12.40;39.30
19654;DHT22;9975;48.046;7.804;2023-06-14T02:30:35;12.30;39.60
19654;DHT22;9975;48.046;7.804;2023-06-14T02:33:01;12.40;40.10
19654;DHT22;9975;48.046;7.804;2023-06-14T02:35:27;12.30;40.40
19654;DHT22;9975;48.046;7.804;2023-06-14T02:37:53;12.30;40.90
19654;DHT22;9975;48.046;7.804;2023-06-14T02:40:19;12.30;41.20
19654;DHT22;9975;48.046;7.804;2023-06-14T02:42:45;12.40;41.80
19654;DHT22;9975;48.046;7.804;2023-06-14T02:45:11;12.40;41.70
19654;DHT22;9975;48.046;7.804;2023-06-14T02:47:37;12.40;42.20
19654;DHT22;9975;48.046;7.804;2023-06-14T02:50:03;12.30;42.30
19654;DHT22;9975;48.046;7.804;2023-06-14T02:52:29;12.20;41.60
19654;DHT22;9975;48.046;7.804;2023-06-14T02:54:54;12.20;42.20
19654;DHT22;9975;48.046;7.804;2023-06-14T02:57:21;12.20;42.90
19654;DHT22;9975;48.046;7.804;2023-06-14T02:59:47;12.10;42.70
19654;DHT22;9975;48.046;7.804;2023-06-14T03:02:12;12.00;42.60
19654;DHT22;9975;48.046;7.804;2023-06-14T03:04:38;12.00;43.30
19654;DHT22;9975;48.046;7.804;2023-06-14T03:07:04;12.00;43.70
19654;DHT22;9975;48.046;7.804;2023-06-14T03:09:39;11.90;43.80
19654;DHT22;9975;48.046;7.804;2023-06-14T03:12:06;11.70;43.80
19654;DHT22;9975;48.046;7.804;2023-06-14T03:14:32;11.70;45.10
19654;DHT22;9975;48.046;7.804;2023-06-14T03:16:58;11.70;45.50
19654;DHT22;9975;48.046;7.804;2023-06-14T03:19:24;11.70;45.70
19654;DHT22;9975;48.046;7.804;2023-06-14T03:21:51;11.70;46.20
19654;DHT22;9975;48.046;7.804;2023-06-14T03:26:43;11.60;46.40
19654;DHT22;9975;48.046;7.804;2023-06-14T03:29:08;11.70;46.70
19654;DHT22;9975;48.046;7.804;2023-06-14T03:31:34;11.70;47.30
19654;DHT22;9975;48.046;7.804;2023-06-14T03:34:01;11.70;47.40
19654;DHT22;9975;48.046;7.804;2023-06-14T03:36:27;11.50;47.20
19654;DHT22;9975;48.046;7.804;2023-06-14T03:38:53;11.50;47.50
19654;DHT22;9975;48.046;7.804;2023-06-14T03:41:20;11.60;48.20
19654;DHT22;9975;48.046;7.804;2023-06-14T03:43:46;11.60;48.80
19654;DHT22;9975;48.046;7.804;2023-06-14T03:46:11;11.70;48.90
19654;DHT22;9975;48.046;7.804;2023-06-14T03:48:37;11.70;49.70
19654;DHT22;9975;48.046;7.804;2023-06-14T03:51:04;11.60;49.90
19654;DHT22;9975;48.046;7.804;2023-06-14T03:53:30;11.60;50.50
19654;DHT22;9975;48.046;7.804;2023-06-14T03:58:22;11.60;51.10
19654;DHT22;9975;48.046;7.804;2023-06-14T04:00:48;11.50;52.50
19654;DHT22;9975;48.046;7.804;2023-06-14T04:03:14;11.60;53.30
19654;DHT22;9975;48.046;7.804;2023-06-14T04:05:41;11.50;51.80
19654;DHT22;9975;48.046;7.804;2023-06-14T04:08:08;11.50;52.30
19654;DHT22;9975;48.046;7.804;2023-06-14T04:10:34;11.40;53.00
19654;DHT22;9975;48.046;7.804;2023-06-14T04:13:00;11.40;53.30
19654;DHT22;9975;48.046;7.804;2023-06-14T04:15:25;11.30;53.50
19654;DHT22;9975;48.046;7.804;2023-06-14T04:17:53;11.30;53.40
19654;DHT22;9975;48.046;7.804;2023-06-14T04:20:23;11.40;53.90
19654;DHT22;9975;48.046;7.804;2023-06-14T04:22:52;11.50;54.60
19654;DHT22;9975;48.046;7.804;2023-06-14T04:25:18;11.50;54.60
19654;DHT22;9975;48.046;7.804;2023-06-14T04:27:44;11.60;54.90
19654;DHT22;9975;48.046;7.804;2023-06-14T04:30:10;11.60;54.90
19654;DHT22;9975;48.046;7.804;2023-06-14T04:32:36;11.70;55.30
19654;DHT22;9975;48.046;7.804;2023-06-14T04:35:06;11.70;55.30
19654;DHT22;9975;48.046;7.804;2023-06-14T04:37:32;11.70;55.40
19654;DHT22;9975;48.046;7.804;2023-06-14T04:39:58;11.70;55.90
19654;DHT22;9975;48.046;7.804;2023-06-14T04:42:24;11.70;56.50
19654;DHT22;9975;48.046;7.804;2023-06-14T04:44:57;11.80;56.50
19654;DHT22;9975;48.046;7.804;2023-06-14T04:47:23;11.80;56.20
19654;DHT22;9975;48.046;7.804;2023-06-14T04:49:50;11.90;56.00
19654;DHT22;9975;48.046;7.804;2023-06-14T04:52:19;11.90;55.20
19654;DHT22;9975;48.046;7.804;2023-06-14T04:54:46;11.90;55.90
19654;DHT22;9975;48.046;7.804;2023-06-14T04:57:12;12.00;55.50
19654;DHT22;9975;48.046;7.804;2023-06-14T04:59:40;12.00;56.50
19654;DHT22;9975;48.046;7.804;2023-06-14T05:02:06;12.10;56.70
19654;DHT22;9975;48.046;7.804;2023-06-14T05:04:32;12.20;55.70
19654;DHT22;9975;48.046;7.804;2023-06-14T05:06:58;12.30;55.20
19654;DHT22;9975;48.046;7.804;2023-06-14T05:09:24;12.40;54.70
19654;DHT22;9975;48.046;7.804;2023-06-14T05:11:49;12.50;53.30
19654;DHT22;9975;48.046;7.804;2023-06-14T05:14:15;12.60;51.80
19654;DHT22;9975;48.046;7.804;2023-06-14T05:16:41;12.80;51.20
19654;DHT22;9975;48.046;7.804;2023-06-14T05:19:08;13.00;50.40
19654;DHT22;9975;48.046;7.804;2023-06-14T05:21:34;13.20;50.30
19654;DHT22;9975;48.046;7.804;2023-06-14T05:24:00;13.30;50.00
19654;DHT22;9975;48.046;7.804;2023-06-14T05:26:26;13.50;49.70
19654;DHT22;9975;48.046;7.804;2023-06-14T05:28:58;13.60;49.30
19654;DHT22;9975;48.046;7.804;2023-06-14T05:31:25;13.70;48.80
19654;DHT22;9975;48.046;7.804;2023-06-14T05:33:52;13.80;48.60
19654;DHT22;9975;48.046;7.804;2023-06-14T05:36:18;13.90;48.10
19654;DHT22;9975;48.046;7.804;2023-06-14T05:38:44;14.00;48.70
19654;DHT22;9975;48.046;7.804;2023-06-14T05:41:10;14.20;48.70
19654;DHT22;9975;48.046;7.804;2023-06-14T05:43:35;14.30;49.10
19654;DHT22;9975;48.046;7.804;2023-06-14T05:46:01;14.40;49.20
19654;DHT22;9975;48.046;7.804;2023-06-14T05:48:27;14.50;49.60
19654;DHT22;9975;48.046;7.804;2023-06-14T05:50:53;14.50;49.40
19654;DHT22;9975;48.046;7.804;2023-06-14T05:53:19;14.60;50.00
19654;DHT22;9975;48.046;7.804;2023-06-14T05:55:44;14.70;50.00
19654;DHT22;9975;48.046;7.804;2023-06-14T05:58:10;14.80;48.50
19654;DHT22;9975;48.046;7.804;2023-06-14T06:00:36;15.00;47.90
19654;DHT22;9975;48.046;7.804;2023-06-14T06:03:02;15.10;47.10
19654;DHT22;9975;48.046;7.804;2023-06-14T06:05:27;15.00;47.60
19654;DHT22;9975;48.046;7.804;2023-06-14T06:07:53;15.10;47.80
19654;DHT22;9975;48.046;7.804;2023-06-14T06:10:18;15.20;48.40
19654;DHT22;9975;48.046;7.804;2023-06-14T06:12:44;15.40;47.70
19654;DHT22;9975;48.046;7.804;2023-06-14T06:17:39;15.70;47.40
19654;DHT22;9975;48.046;7.804;2023-06-14T06:20:06;15.90;47.50
19654;DHT22;9975;48.046;7.804;2023-06-14T06:22:34;15.80;47.90
19654;DHT22;9975;48.046;7.804;2023-06-14T06:25:00;15.90;47.00
19654;DHT22;9975;48.046;7.804;2023-06-14T06:27:25;16.20;45.40
19654;DHT22;9975;48.046;7.804;2023-06-14T06:29:51;16.20;46.00
19654;DHT22;9975;48.046;7.804;2023-06-14T06:32:17;16.30;46.50
19654;DHT22;9975;48.046;7.804;2023-06-14T06:34:43;16.50;44.70
19654;DHT22;9975;48.046;7.804;2023-06-14T06:37:09;16.70;43.90
19654;DHT22;9975;48.046;7.804;2023-06-14T06:39:35;16.90;43.50
19654;DHT22;9975;48.046;7.804;2023-06-14T06:42:01;16.90;43.40
19654;DHT22;9975;48.046;7.804;2023-06-14T06:44:26;16.90;43.80
19654;DHT22;9975;48.046;7.804;2023-06-14T06:46:52;17.20;42.60
19654;DHT22;9975;48.046;7.804;2023-06-14T06:49:17;17.20;43.10
19654;DHT22;9975;48.046;7.804;2023-06-14T06:51:43;17.50;41.50
19654;DHT22;9975;48.046;7.804;2023-06-14T06:54:10;17.60;41.80
19654;DHT22;9975;48.046;7.804;2023-06-14T06:56:36;17.80;41.40
19654;DHT22;9975;48.046;7.804;2023-06-14T06:59:01;17.80;42.00
19654;DHT22;9975;48.046;7.804;2023-06-14T07:01:27;17.90;41.20
19654;DHT22;9975;48.046;7.804;2023-06-14T07:03:54;18.10;40.60
19654;DHT22;9975;48.046;7.804;2023-06-14T07:06:20;18.40;40.00
19654;DHT22;9975;48.046;7.804;2023-06-14T07:08:46;18.40;40.40
19654;DHT22;9975;48.046;7.804;2023-06-14T07:11:14;18.50;39.20
19654;DHT22;9975;48.046;7.804;2023-06-14T07:13:39;18.80;38.20
19654;DHT22;9975;48.046;7.804;2023-06-14T07:16:18;18.90;38.10
19654;DHT22;9975;48.046;7.804;2023-06-14T07:18:43;20.90;40.20
19654;DHT22;9975;48.046;7.804;2023-06-14T07:21:09;19.40;36.30
19654;DHT22;9975;48.046;7.804;2023-06-14T07:23:35;19.30;36.70
19654;DHT22;9975;48.046;7.804;2023-06-14T07:26:01;19.50;36.00
19654;DHT22;9975;48.046;7.804;2023-06-14T07:28:26;19.80;34.20
19654;DHT22;9975;48.046;7.804;2023-06-14T07:30:52;19.90;34.70
19654;DHT22;9975;48.046;7.804;2023-06-14T07:33:17;20.10;33.80
19654;DHT22;9975;48.046;7.804;2023-06-14T07:35:43;20.10;34.30
19654;DHT22;9975;48.046;7.804;2023-06-14T07:38:08;20.10;33.20
19654;DHT22;9975;48.046;7.804;2023-06-14T07:40:34;20.30;32.90
19654;DHT22;9975;48.046;7.804;2023-06-14T07:43:00;20.40;32.90
19654;DHT22;9975;48.046;7.804;2023-06-14T07:45:27;20.50;33.20
19654;DHT22;9975;48.046;7.804;2023-06-14T07:47:53;20.70;32.60
19654;DHT22;9975;48.046;7.804;2023-06-14T07:52:45;20.90;31.00
19654;DHT22;9975;48.046;7.804;2023-06-14T07:55:10;21.10;31.10
19654;DHT22;9975;48.046;7.804;2023-06-14T07:57:36;21.10;31.70
19654;DHT22;9975;48.046;7.804;2023-06-14T08:00:02;21.20;31.40
19654;DHT22;9975;48.046;7.804;2023-06-14T08:02:32;21.50;30.50
19654;DHT22;9975;48.046;7.804;2023-06-14T08:04:57;21.60;30.40
19654;DHT22;9975;48.046;7.804;2023-06-14T08:07:23;21.80;30.00
19654;DHT22;9975;48.046;7.804;2023-06-14T08:09:50;21.90;30.60
19654;DHT22;9975;48.046;7.804;2023-06-14T08:12:15;22.10;29.40
19654;DHT22;9975;48.046;7.804;2023-06-14T08:14:42;22.10;30.00
19654;DHT22;9975;48.046;7.804;2023-06-14T08:17:08;22.30;30.00
19654;DHT22;9975;48.046;7.804;2023-06-14T08:19:33;22.60;29.70
19654;DHT22;9975;48.046;7.804;2023-06-14T08:21:59;22.80;28.90
19654;DHT22;9975;48.046;7.804;2023-06-14T08:24:25;23.00;26.60
19654;DHT22;9975;48.046;7.804;2023-06-14T08:26:53;23.00;26.90
19654;DHT22;9975;48.046;7.804;2023-06-14T08:29:19;23.20;26.30
19654;DHT22;9975;48.046;7.804;2023-06-14T08:31:45;23.20;26.80
19654;DHT22;9975;48.046;7.804;2023-06-14T08:34:10;23.40;26.80
19654;DHT22;9975;48.046;7.804;2023-06-14T08:36:36;23.60;24.00
19654;DHT22;9975;48.046;7.804;2023-06-14T08:39:02;23.70;24.70
19654;DHT22;9975;48.046;7.804;2023-06-14T08:41:28;23.50;23.70
19654;DHT22;9975;48.046;7.804;2023-06-14T08:43:55;23.80;23.30
19654;DHT22;9975;48.046;7.804;2023-06-14T08:46:21;23.80;23.60
19654;DHT22;9975;48.046;7.804;2023-06-14T08:48:51;24.30;23.50
19654;DHT22;9975;48.046;7.804;2023-06-14T08:51:19;24.50;22.50
19654;DHT22;9975;48.046;7.804;2023-06-14T08:53:53;24.50;22.90
19654;DHT22;9975;48.046;7.804;2023-06-14T08:56:26;25.10;22.00
19654;DHT22;9975;48.046;7.804;2023-06-14T08:58:53;25.10;21.50
19654;DHT22;9975;48.046;7.804;2023-06-14T09:01:18;25.10;22.00
19654;DHT22;9975;48.046;7.804;2023-06-14T09:03:47;24.90;21.30
19654;DHT22;9975;48.046;7.804;2023-06-14T09:06:13;24.90;21.80
19654;DHT22;9975;48.046;7.804;2023-06-14T09:08:48;25.30;21.10
19654;DHT22;9975;48.046;7.804;2023-06-14T09:11:17;25.60;19.60
19654;DHT22;9975;48.046;7.804;2023-06-14T09:13:48;25.40;19.70
19654;DHT22;9975;48.046;7.804;2023-06-14T09:16:14;25.40;20.40
19654;DHT22;9975;48.046;7.804;2023-06-14T09:18:43;25.40;20.30
19654;DHT22;9975;48.046;7.804;2023-06-14T09:21:11;25.50;20.30
19654;DHT22;9975;48.046;7.804;2023-06-14T09:23:38;26.00;19.60
19654;DHT22;9975;48.046;7.804;2023-06-14T09:26:31;26.30;18.80
19654;DHT22;9975;48.046;7.804;2023-06-14T09:28:57;26.70;18.00
19654;DHT22;9975;48.046;7.804;2023-06-14T09:31:23;26.80;17.60
19654;DHT22;9975;48.046;7.804;2023-06-14T09:33:50;26.80;18.10
19654;DHT22;9975;48.046;7.804;2023-06-14T09:36:17;26.90;17.90
19654;DHT22;9975;48.046;7.804;2023-06-14T09:41:20;26.60;19.40
19654;DHT22;9975;48.046;7.804;2023-06-14T09:43:47;27.00;18.00
19654;DHT22;9975;48.046;7.804;2023-06-14T09:46:13;27.20;18.00
19654;DHT22;9975;48.046;7.804;2023-06-14T09:48:38;27.20;18.40
19654;DHT22;9975;48.046;7.804;2023-06-14T09:51:10;27.60;17.60
19654;DHT22;9975;48.046;7.804;2023-06-14T09:53:36;27.20;16.40
19654;DHT22;9975;48.046;7.804;2023-06-14T09:56:04;27.40;17.00
19654;DHT22;9975;48.046;7.804;2023-06-14T09:58:30;27.80;17.10
19654;DHT22;9975;48.046;7.804;2023-06-14T10:00:59;27.80;17.30
19654;DHT22;9975;48.046;7.804;2023-06-14T10:03:30;27.50;17.00
19654;DHT22;9975;48.046;7.804;2023-06-14T10:05:58;27.20;16.20
19654;DHT22;9975;48.046;7.804;2023-06-14T10:08:27;27.30;16.80
19654;DHT22;9975;48.046;7.804;2023-06-14T10:10:56;27.30;16.90
19654;DHT22;9975;48.046;7.804;2023-06-14T10:13:22;27.40;16.80
19654;DHT22;9975;48.046;7.804;2023-06-14T10:16:10;28.00;15.70
19654;DHT22;9975;48.046;7.804;2023-06-14T10:18:42;28.40;14.90
19654;DHT22;9975;48.046;7.804;2023-06-14T10:23:48;28.40;14.00
19654;DHT22;9975;48.046;7.804;2023-06-14T10:26:23;28.90;14.20
19654;DHT22;9975;48.046;7.804;2023-06-14T10:28:57;28.90;14.60
19654;DHT22;9975;48.046;7.804;2023-06-14T10:31:46;29.00;12.70
19654;DHT22;9975;48.046;7.804;2023-06-14T10:34:21;29.20;13.40
19654;DHT22;9975;48.046;7.804;2023-06-14T10:39:32;29.60;12.00
19654;DHT22;9975;48.046;7.804;2023-06-14T10:42:02;29.70;12.20
19654;DHT22;9975;48.046;7.804;2023-06-14T10:46:58;29.60;10.70
19654;DHT22;9975;48.046;7.804;2023-06-14T10:49:43;29.60;11.60
19654;DHT22;9975;48.046;7.804;2023-06-14T10:52:14;29.60;12.50
19654;DHT22;9975;48.046;7.804;2023-06-14T10:57:35;28.90;11.60
19654;DHT22;9975;48.046;7.804;2023-06-14T11:00:03;29.50;12.90
19654;DHT22;9975;48.046;7.804;2023-06-14T11:05:29;29.40;11.30
19654;DHT22;9975;48.046;7.804;2023-06-14T11:10:47;29.60;10.80
19654;DHT22;9975;48.046;7.804;2023-06-14T11:13:16;30.00;10.50
19654;DHT22;9975;48.046;7.804;2023-06-14T11:15:44;30.00;10.90
19654;DHT22;9975;48.046;7.804;2023-06-14T11:18:12;30.00;11.80
19654;DHT22;9975;48.046;7.804;2023-06-14T11:20:40;30.30;11.00
19654;DHT22;9975;48.046;7.804;2023-06-14T11:23:05;30.60;9.80
19654;DHT22;9975;48.046;7.804;2023-06-14T11:25:31;30.70;10.30
19654;DHT22;9975;48.046;7.804;2023-06-14T11:27:57;31.20;9.10
19654;DHT22;9975;48.046;7.804;2023-06-14T11:30:25;31.30;9.50
19654;DHT22;9975;48.046;7.804;2023-06-14T11:32:54;31.30;9.80
19654;DHT22;9975;48.046;7.804;2023-06-14T11:35:23;31.50;9.20
19654;DHT22;9975;48.046;7.804;2023-06-14T11:37:53;29.50;10.10
19654;DHT22;9975;48.046;7.804;2023-06-14T11:40:19;29.70;10.90
19654;DHT22;9975;48.046;7.804;2023-06-14T11:42:44;29.80;10.90
19654;DHT22;9975;48.046;7.804;2023-06-14T11:45:11;29.90;11.40
19654;DHT22;9975;48.046;7.804;2023-06-14T11:47:38;30.60;10.20
19654;DHT22;9975;48.046;7.804;2023-06-14T11:50:06;31.20;9.90
19654;DHT22;9975;48.046;7.804;2023-06-14T11:52:33;31.20;10.30
19654;DHT22;9975;48.046;7.804;2023-06-14T11:54:59;31.50;8.90
19654;DHT22;9975;48.046;7.804;2023-06-14T11:57:25;31.50;8.40
19654;DHT22;9975;48.046;7.804;2023-06-14T11:59:52;31.90;8.60
19654;DHT22;9975;48.046;7.804;2023-06-14T12:02:19;32.10;8.40
19654;DHT22;9975;48.046;7.804;2023-06-14T12:04:47;32.20;7.90
19654;DHT22;9975;48.046;7.804;2023-06-14T12:07:17;32.20;8.30
19654;DHT22;9975;48.046;7.804;2023-06-14T12:12:25;31.40;7.30
19654;DHT22;9975;48.046;7.804;2023-06-14T12:14:51;32.00;8.10
19654;DHT22;9975;48.046;7.804;2023-06-14T12:17:18;32.30;7.60
19654;DHT22;9975;48.046;7.804;2023-06-14T12:19:45;32.30;6.90
19654;DHT22;9975;48.046;7.804;2023-06-14T12:22:11;31.40;6.80
19654;DHT22;9975;48.046;7.804;2023-06-14T12:24:38;30.80;7.40
19654;DHT22;9975;48.046;7.804;2023-06-14T12:27:05;30.70;7.70
19654;DHT22;9975;48.046;7.804;2023-06-14T12:29:31;30.20;8.60
19654;DHT22;9975;48.046;7.804;2023-06-14T12:31:57;31.00;8.10
19654;DHT22;9975;48.046;7.804;2023-06-14T12:34:23;31.50;7.40
19654;DHT22;9975;48.046;7.804;2023-06-14T12:36:50;31.70;7.10
19654;DHT22;9975;48.046;7.804;2023-06-14T12:39:16;31.70;7.50
19654;DHT22;9975;48.046;7.804;2023-06-14T12:41:42;31.50;7.80
19654;DHT22;9975;48.046;7.804;2023-06-14T12:44:07;31.30;7.70
19654;DHT22;9975;48.046;7.804;2023-06-14T12:46:34;31.40;8.10
19654;DHT22;9975;48.046;7.804;2023-06-14T12:49:00;32.30;7.50
19654;DHT22;9975;48.046;7.804;2023-06-14T12:51:26;32.40;8.20
19654;DHT22;9975;48.046;7.804;2023-06-14T12:53:51;33.10;6.20
19654;DHT22;9975;48.046;7.804;2023-06-14T12:56:17;33.10;6.90
19654;DHT22;9975;48.046;7.804;2023-06-14T12:58:43;33.20;6.10
19654;DHT22;9975;48.046;7.804;2023-06-14T13:01:09;33.30;6.10
19654;DHT22;9975;48.046;7.804;2023-06-14T13:03:34;33.50;6.10
19654;DHT22;9975;48.046;7.804;2023-06-14T13:06:01;36.40;6.80
19654;DHT22;9975;48.046;7.804;2023-06-14T13:08:27;33.50;5.50
19654;DHT22;9975;48.046;7.804;2023-06-14T13:10:53;33.60;5.50
19654;DHT22;9975;48.046;7.804;2023-06-14T13:13:19;33.30;5.50
19654;DHT22;9975;48.046;7.804;2023-06-14T13:15:45;33.30;6.50
19654;DHT22;9975;48.046;7.804;2023-06-14T13:18:11;33.30;5.90
19654;DHT22;9975;48.046;7.804;2023-06-14T13:20:39;33.20;5.40
19654;DHT22;9975;48.046;7.804;2023-06-14T13:23:05;33.20;6.10
19654;DHT22;9975;48.046;7.804;2023-06-14T13:25:33;32.90;6.10
19654;DHT22;9975;48.046;7.804;2023-06-14T13:27:59;32.40;6.40
19654;DHT22;9975;48.046;7.804;2023-06-14T13:30:25;32.20;7.20
19654;DHT22;9975;48.046;7.804;2023-06-14T13:32:51;32.80;6.30
19654;DHT22;9975;48.046;7.804;2023-06-14T13:35:18;32.80;6.80
19654;DHT22;9975;48.046;7.804;2023-06-14T13:37:44;33.20;7.20
19654;DHT22;9975;48.046;7.804;2023-06-14T13:40:10;33.50;5.30
19654;DHT22;9975;48.046;7.804;2023-06-14T13:42:37;33.50;5.60
19654;DHT22;9975;48.046;7.804;2023-06-14T13:45:04;32.80;5.50
19654;DHT22;9975;48.046;7.804;2023-06-14T13:47:30;33.20;6.30
19654;DHT22;9975;48.046;7.804;2023-06-14T13:49:56;33.20;6.70
19654;DHT22;9975;48.046;7.804;2023-06-14T13:52:22;33.20;4.90
19654;DHT22;9975;48.046;7.804;2023-06-14T13:54:48;33.20;5.10
19654;DHT22;9975;48.046;7.804;2023-06-14T13:57:15;33.30;5.50
19654;DHT22;9975;48.046;7.804;2023-06-14T13:59:41;32.70;5.40
19654;DHT22;9975;48.046;7.804;2023-06-14T14:02:07;32.80;5.90
19654;DHT22;9975;48.046;7.804;2023-06-14T14:04:33;32.30;6.30
19654;DHT22;9975;48.046;7.804;2023-06-14T14:07:01;32.60;6.30
19654;DHT22;9975;48.046;7.804;2023-06-14T14:09:26;32.70;5.70
19654;DHT22;9975;48.046;7.804;2023-06-14T14:11:52;33.00;6.00
19654;DHT22;9975;48.046;7.804;2023-06-14T14:14:18;33.20;5.30
19654;DHT22;9975;48.046;7.804;2023-06-14T14:16:43;32.90;5.00
19654;DHT22;9975;48.046;7.804;2023-06-14T14:19:09;32.70;5.80
19654;DHT22;9975;48.046;7.804;2023-06-14T14:21:35;32.10;6.10
19654;DHT22;9975;48.046;7.804;2023-06-14T14:24:01;31.80;6.80
19654;DHT22;9975;48.046;7.804;2023-06-14T14:26:27;32.50;6.20
19654;DHT22;9975;48.046;7.804;2023-06-14T14:28:53;32.60;5.40
19654;DHT22;9975;48.046;7.804;2023-06-14T14:31:19;32.60;5.80
19654;DHT22;9975;48.046;7.804;2023-06-14T14:33:44;35.30;6.30
19654;DHT22;9975;48.046;7.804;2023-06-14T14:36:10;32.80;5.70
19654;DHT22;9975;48.046;7.804;2023-06-14T14:38:35;32.70;5.30
19654;DHT22;9975;48.046;7.804;2023-06-14T14:41:01;31.50;5.60
19654;DHT22;9975;48.046;7.804;2023-06-14T14:43:27;31.50;6.30
19654;DHT22;9975;48.046;7.804;2023-06-14T14:45:55;31.80;7.10
19654;DHT22;9975;48.046;7.804;2023-06-14T14:48:21;32.00;7.30
19654;DHT22;9975;48.046;7.804;2023-06-14T14:50:47;32.30;6.30
19654;DHT22;9975;48.046;7.804;2023-06-14T14:53:13;32.50;6.10
19654;DHT22;9975;48.046;7.804;2023-06-14T14:55:42;32.60;6.00
19654;DHT22;9975;48.046;7.804;2023-06-14T14:58:08;32.40;5.80
19654;DHT22;9975;48.046;7.804;2023-06-14T15:00:34;32.50;6.20
19654;DHT22;9975;48.046;7.804;2023-06-14T15:03:00;32.50;6.90
19654;DHT22;9975;48.046;7.804;2023-06-14T15:05:25;32.40;6.00
19654;DHT22;9975;48.046;7.804;2023-06-14T15:07:51;32.50;6.50
19654;DHT22;9975;48.046;7.804;2023-06-14T15:10:17;32.10;6.50
19654;DHT22;9975;48.046;7.804;2023-06-14T15:12:42;32.10;6.70
19654;DHT22;9975;48.046;7.804;2023-06-14T15:15:08;32.20;6.50
19654;DHT22;9975;48.046;7.804;2023-06-14T15:17:35;32.20;6.90
19654;DHT22;9975;48.046;7.804;2023-06-14T15:20:00;32.20;6.60
19654;DHT22;9975;48.046;7.804;2023-06-14T15:22:26;32.10;6.50
19654;DHT22;9975;48.046;7.804;2023-06-14T15:24:52;31.80;6.60
19654;DHT22;9975;48.046;7.804;2023-06-14T15:27:17;31.70;6.40
19654;DHT22;9975;48.046;7.804;2023-06-14T15:29:44;31.70;6.90
19654;DHT22;9975;48.046;7.804;2023-06-14T15:32:10;31.30;7.10
19654;DHT22;9975;48.046;7.804;2023-06-14T15:34:36;31.40;7.60
19654;DHT22;9975;48.046;7.804;2023-06-14T15:37:05;31.40;7.60
19654;DHT22;9975;48.046;7.804;2023-06-14T15:39:31;31.70;7.30
19654;DHT22;9975;48.046;7.804;2023-06-14T15:41:58;31.90;7.20
19654;DHT22;9975;48.046;7.804;2023-06-14T15:44:23;31.90;6.60
19654;DHT22;9975;48.046;7.804;2023-06-14T15:46:49;31.60;6.40
19654;DHT22;9975;48.046;7.804;2023-06-14T15:49:15;31.20;6.80
19654;DHT22;9975;48.046;7.804;2023-06-14T15:51:40;31.10;7.30
19654;DHT22;9975;48.046;7.804;2023-06-14T15:54:06;31.10;6.70
19654;DHT22;9975;48.046;7.804;2023-06-14T15:56:50;31.00;7.00
19654;DHT22;9975;48.046;7.804;2023-06-14T15:59:16;30.80;7.20
19654;DHT22;9975;48.046;7.804;2023-06-14T16:01:42;30.80;7.50
19654;DHT22;9975;48.046;7.804;2023-06-14T16:04:07;30.80;7.80
19654;DHT22;9975;48.046;7.804;2023-06-14T16:06:33;30.90;7.90
19654;DHT22;9975;48.046;7.804;2023-06-14T16:12:06;30.90;7.60
19654;DHT22;9975;48.046;7.804;2023-06-14T16:14:34;31.00;7.70
19654;DHT22;9975;48.046;7.804;2023-06-14T16:17:00;31.10;7.90
19654;DHT22;9975;48.046;7.804;2023-06-14T16:19:26;31.10;8.10
19654;DHT22;9975;48.046;7.804;2023-06-14T16:21:52;31.10;7.50
19654;DHT22;9975;48.046;7.804;2023-06-14T16:24:17;31.10;7.20
19654;DHT22;9975;48.046;7.804;2023-06-14T16:26:43;31.10;7.60
19654;DHT22;9975;48.046;7.804;2023-06-14T16:29:09;31.10;7.60
19654;DHT22;9975;48.046;7.804;2023-06-14T16:31:34;31.00;7.70
19654;DHT22;9975;48.046;7.804;2023-06-14T16:34:00;31.00;7.70
19654;DHT22;9975;48.046;7.804;2023-06-14T16:36:26;30.60;7.60
19654;DHT22;9975;48.046;7.804;2023-06-14T16:38:52;30.60;7.90
19654;DHT22;9975;48.046;7.804;2023-06-14T16:41:18;30.50;7.90
19654;DHT22;9975;48.046;7.804;2023-06-14T16:43:43;30.50;8.30
19654;DHT22;9975;48.046;7.804;2023-06-14T16:46:10;30.50;7.80
19654;DHT22;9975;48.046;7.804;2023-06-14T16:48:36;30.20;8.00
19654;DHT22;9975;48.046;7.804;2023-06-14T16:51:03;30.00;8.40
19654;DHT22;9975;48.046;7.804;2023-06-14T16:53:29;29.90;8.30
19654;DHT22;9975;48.046;7.804;2023-06-14T16:55:55;29.90;8.50
19654;DHT22;9975;48.046;7.804;2023-06-14T16:58:20;29.60;8.40
19654;DHT22;9975;48.046;7.804;2023-06-14T17:00:46;29.40;9.00
19654;DHT22;9975;48.046;7.804;2023-06-14T17:03:12;29.40;9.20
19654;DHT22;9975;48.046;7.804;2023-06-14T17:05:52;29.40;9.40
19654;DHT22;9975;48.046;7.804;2023-06-14T17:08:18;29.10;9.30
19654;DHT22;9975;48.046;7.804;2023-06-14T17:10:44;28.90;9.60
19654;DHT22;9975;48.046;7.804;2023-06-14T17:13:10;28.80;10.00
19654;DHT22;9975;48.046;7.804;2023-06-14T17:15:36;28.70;9.70
19654;DHT22;9975;48.046;7.804;2023-06-14T17:18:01;28.60;10.10
19654;DHT22;9975;48.046;7.804;2023-06-14T17:20:27;28.50;10.10
19654;DHT22;9975;48.046;7.804;2023-06-14T17:22:52;28.50;10.40
19654;DHT22;9975;48.046;7.804;2023-06-14T17:25:18;28.50;10.80
19654;DHT22;9975;48.046;7.804;2023-06-14T17:27:44;28.70;10.90
19654;DHT22;9975;48.046;7.804;2023-06-14T17:30:10;28.60;10.70
19654;DHT22;9975;48.046;7.804;2023-06-14T17:32:36;28.60;10.80
19654;DHT22;9975;48.046;7.804;2023-06-14T17:35:02;28.40;10.40
19654;DHT22;9975;48.046;7.804;2023-06-14T17:37:29;28.30;10.80
19654;DHT22;9975;48.046;7.804;2023-06-14T17:39:54;28.20;10.80
19654;DHT22;9975;48.046;7.804;2023-06-14T17:42:20;28.10;11.00
19654;DHT22;9975;48.046;7.804;2023-06-14T17:44:47;27.90;10.70
19654;DHT22;9975;48.046;7.804;2023-06-14T17:47:16;27.90;11.20
19654;DHT22;9975;48.046;7.804;2023-06-14T17:49:42;27.90;11.50
19654;DHT22;9975;48.046;7.804;2023-06-14T17:52:08;27.80;11.70
19654;DHT22;9975;48.046;7.804;2023-06-14T17:54:34;27.60;11.80
19654;DHT22;9975;48.046;7.804;2023-06-14T17:57:00;27.50;11.90
19654;DHT22;9975;48.046;7.804;2023-06-14T17:59:25;27.30;11.70
19654;DHT22;9975;48.046;7.804;2023-06-14T18:01:51;27.20;12.10
19654;DHT22;9975;48.046;7.804;2023-06-14T18:04:17;27.10;12.40
19654;DHT22;9975;48.046;7.804;2023-06-14T18:06:42;27.00;12.70
19654;DHT22;9975;48.046;7.804;2023-06-14T18:09:08;26.90;12.20
19654;DHT22;9975;48.046;7.804;2023-06-14T18:14:01;26.70;12.10
19654;DHT22;9975;48.046;7.804;2023-06-14T18:16:26;26.70;12.60
19654;DHT22;9975;48.046;7.804;2023-06-14T18:18:52;26.60;12.70
19654;DHT22;9975;48.046;7.804;2023-06-14T18:21:19;26.40;12.60